Little Falls, New York
Current Conditions -  °F | °C
As of 5:10 PM on Monday 24 Nov 2014 (Local Time) from KNY0 Reporting Station
Scattered Clouds Scattered Clouds  
Wind Chill: 62°   Ceiling: Unl
Heat Index: 62°   Visibility: 10mi
Dew Point: 49°   Wind: 9mph
Humidity: 62%   Direction: 200°SSW
Pressure: 29.47"   Gusts: NA
Location:  43.04°N, 74.86°W
Report Text: KNY0 242210Z AUTO 20008KT 10SM SCT060 SCT075 SCT100 17/09 A2947 RMK AO2 T01650092
Loading
Personal Weather Stations






























Interactive Weather Map New forecast layout! Learn more

10-Day Weather Forecast

Advertisements
Track Severe Weather on mobile